sensor_id;sensor_type;location;lat;lon;timestamp;pressure;altitude;pressure_sealevel;temperature;humidity
62800;BME280;48842;51.046;13.796;2024-03-25T00:00:58;98850.25;;;9.29;nan
62800;BME280;48842;51.046;13.796;2024-03-25T00:03:23;98849.41;;;9.28;nan
62800;BME280;48842;51.046;13.796;2024-03-25T00:05:49;98834.59;;;9.29;nan
62800;BME280;48842;51.046;13.796;2024-03-25T00:08:15;98836.31;;;9.30;nan
62800;BME280;48842;51.046;13.796;2024-03-25T00:10:40;98836.31;;;9.30;nan
62800;BME280;48842;51.046;13.796;2024-03-25T00:13:05;98838.91;;;9.31;nan
62800;BME280;48842;51.046;13.796;2024-03-25T00:15:30;98848.50;;;9.31;nan
62800;BME280;48842;51.046;13.796;2024-03-25T00:17:55;98843.22;;;9.34;nan
62800;BME280;48842;51.046;13.796;2024-03-25T00:20:21;98851.06;;;9.34;nan
62800;BME280;48842;51.046;13.796;2024-03-25T00:22:46;98855.47;;;9.32;nan
62800;BME280;48842;51.046;13.796;2024-03-25T00:25:11;98858.13;;;9.27;nan
62800;BME280;48842;51.046;13.796;2024-03-25T00:27:37;98869.47;;;9.28;nan
62800;BME280;48842;51.046;13.796;2024-03-25T00:30:02;98857.38;;;9.20;nan
62800;BME280;48842;51.046;13.796;2024-03-25T00:32:27;98859.25;;;9.09;nan
62800;BME280;48842;51.046;13.796;2024-03-25T00:34:53;98864.59;;;9.03;nan
62800;BME280;48842;51.046;13.796;2024-03-25T00:37:18;98875.16;;;8.95;nan
62800;BME280;48842;51.046;13.796;2024-03-25T00:39:43;98867.31;;;8.92;nan
62800;BME280;48842;51.046;13.796;2024-03-25T00:42:09;98883.06;;;8.86;nan
62800;BME280;48842;51.046;13.796;2024-03-25T00:44:34;98869.28;;;8.78;nan
62800;BME280;48842;51.046;13.796;2024-03-25T00:46:59;98861.56;;;8.67;nan
62800;BME280;48842;51.046;13.796;2024-03-25T00:49:25;98868.56;;;8.65;nan
62800;BME280;48842;51.046;13.796;2024-03-25T00:51:50;98872.03;;;8.64;nan
62800;BME280;48842;51.046;13.796;2024-03-25T00:54:15;98871.19;;;8.63;nan
62800;BME280;48842;51.046;13.796;2024-03-25T00:56:41;98866.81;;;8.65;nan
62800;BME280;48842;51.046;13.796;2024-03-25T00:59:06;98866.78;;;8.67;nan
62800;BME280;48842;51.046;13.796;2024-03-25T01:01:32;98863.31;;;8.66;nan
62800;BME280;48842;51.046;13.796;2024-03-25T01:03:58;98864.19;;;8.65;nan
62800;BME280;48842;51.046;13.796;2024-03-25T01:06:23;98865.94;;;8.66;nan
62800;BME280;48842;51.046;13.796;2024-03-25T01:08:49;98865.03;;;8.66;nan
62800;BME280;48842;51.046;13.796;2024-03-25T01:11:14;98865.94;;;8.66;nan
62800;BME280;48842;51.046;13.796;2024-03-25T01:13:40;98862.59;;;8.53;nan
62800;BME280;48842;51.046;13.796;2024-03-25T01:16:07;98856.59;;;8.42;nan
62800;BME280;48842;51.046;13.796;2024-03-25T01:18:32;98855.59;;;8.57;nan
62800;BME280;48842;51.046;13.796;2024-03-25T01:20:58;98872.91;;;8.64;nan
62800;BME280;48842;51.046;13.796;2024-03-25T01:23:23;98866.75;;;8.68;nan
62800;BME280;48842;51.046;13.796;2024-03-25T01:25:48;98876.28;;;8.72;nan
62800;BME280;48842;51.046;13.796;2024-03-25T01:28:13;98878.84;;;8.76;nan
62800;BME280;48842;51.046;13.796;2024-03-25T01:30:39;98871.88;;;8.79;nan
62800;BME280;48842;51.046;13.796;2024-03-25T01:33:04;98884.94;;;8.78;nan
62800;BME280;48842;51.046;13.796;2024-03-25T01:35:30;98884.09;;;8.74;nan
62800;BME280;48842;51.046;13.796;2024-03-25T01:37:55;98886.69;;;8.76;nan
62800;BME280;48842;51.046;13.796;2024-03-25T01:40:21;98884.09;;;8.74;nan
62800;BME280;48842;51.046;13.796;2024-03-25T01:42:59;98891.09;;;8.72;nan
62800;BME280;48842;51.046;13.796;2024-03-25T01:45:27;98891.06;;;8.73;nan
62800;BME280;48842;51.046;13.796;2024-03-25T01:47:53;98897.28;;;8.63;nan
62800;BME280;48842;51.046;13.796;2024-03-25T01:50:20;98897.31;;;8.60;nan
62800;BME280;48842;51.046;13.796;2024-03-25T01:52:46;98898.25;;;8.56;nan
62800;BME280;48842;51.046;13.796;2024-03-25T01:55:15;98903.53;;;8.51;nan
62800;BME280;48842;51.046;13.796;2024-03-25T01:57:43;98909.59;;;8.50;nan
62800;BME280;48842;51.046;13.796;2024-03-25T02:00:10;98924.44;;;8.45;nan
62800;BME280;48842;51.046;13.796;2024-03-25T02:02:37;98914.00;;;8.42;nan
62800;BME280;48842;51.046;13.796;2024-03-25T02:05:07;98918.38;;;8.45;nan
62800;BME280;48842;51.046;13.796;2024-03-25T02:07:35;98921.78;;;8.48;nan
62800;BME280;48842;51.046;13.796;2024-03-25T02:10:02;98919.19;;;8.50;nan
62800;BME280;48842;51.046;13.796;2024-03-25T02:12:29;98925.31;;;8.46;nan
62800;BME280;48842;51.046;13.796;2024-03-25T02:14:54;98920.97;;;8.43;nan
62800;BME280;48842;51.046;13.796;2024-03-25T02:17:20;98918.38;;;8.45;nan
62800;BME280;48842;51.046;13.796;2024-03-25T02:19:45;98917.47;;;8.47;nan
62800;BME280;48842;51.046;13.796;2024-03-25T02:22:10;98914.91;;;8.44;nan
62800;BME280;48842;51.046;13.796;2024-03-25T02:24:36;98915.75;;;8.45;nan
62800;BME280;48842;51.046;13.796;2024-03-25T02:27:02;98920.09;;;8.47;nan
62800;BME280;48842;51.046;13.796;2024-03-25T02:29:34;98920.88;;;8.52;nan
62800;BME280;48842;51.046;13.796;2024-03-25T02:31:59;98922.66;;;8.50;nan
62800;BME280;48842;51.046;13.796;2024-03-25T02:34:24;98928.75;;;8.49;nan
62800;BME280;48842;51.046;13.796;2024-03-25T02:36:50;98922.66;;;8.50;nan
62800;BME280;48842;51.046;13.796;2024-03-25T02:39:17;98925.22;;;8.53;nan
62800;BME280;48842;51.046;13.796;2024-03-25T02:41:42;98928.66;;;8.55;nan
62800;BME280;48842;51.046;13.796;2024-03-25T02:44:08;98927.81;;;8.56;nan
62800;BME280;48842;51.046;13.796;2024-03-25T02:46:33;98928.66;;;8.57;nan
62800;BME280;48842;51.046;13.796;2024-03-25T02:48:59;98926.91;;;8.59;nan
62800;BME280;48842;51.046;13.796;2024-03-25T02:51:24;98929.44;;;8.65;nan
62800;BME280;48842;51.046;13.796;2024-03-25T02:53:49;98930.31;;;8.67;nan
62800;BME280;48842;51.046;13.796;2024-03-25T02:56:14;98938.94;;;8.72;nan
62800;BME280;48842;51.046;13.796;2024-03-25T02:58:40;98940.63;;;8.77;nan
62800;BME280;48842;51.046;13.796;2024-03-25T03:01:05;98934.56;;;8.76;nan
62800;BME280;48842;51.046;13.796;2024-03-25T03:03:30;98945.91;;;8.72;nan
62800;BME280;48842;51.046;13.796;2024-03-25T03:05:55;98948.47;;;8.75;nan
62800;BME280;48842;51.046;13.796;2024-03-25T03:08:20;98949.31;;;8.77;nan
62800;BME280;48842;51.046;13.796;2024-03-25T03:10:46;98944.06;;;8.80;nan
62800;BME280;48842;51.046;13.796;2024-03-25T03:13:11;98952.78;;;8.81;nan
62800;BME280;48842;51.046;13.796;2024-03-25T03:15:38;98956.22;;;8.83;nan
62800;BME280;48842;51.046;13.796;2024-03-25T03:18:08;98960.53;;;8.85;nan
62800;BME280;48842;51.046;13.796;2024-03-25T03:20:33;98964.03;;;8.84;nan
62800;BME280;48842;51.046;13.796;2024-03-25T03:22:58;98963.13;;;8.87;nan
62800;BME280;48842;51.046;13.796;2024-03-25T03:25:25;98967.53;;;8.85;nan
62800;BME280;48842;51.046;13.796;2024-03-25T03:27:50;98966.66;;;8.84;nan
62800;BME280;48842;51.046;13.796;2024-03-25T03:30:15;98971.81;;;8.89;nan
62800;BME280;48842;51.046;13.796;2024-03-25T03:32:41;98977.91;;;8.91;nan
62800;BME280;48842;51.046;13.796;2024-03-25T03:35:06;98970.06;;;8.91;nan
62800;BME280;48842;51.046;13.796;2024-03-25T03:37:32;98979.59;;;8.95;nan
62800;BME280;48842;51.046;13.796;2024-03-25T03:39:57;98987.47;;;8.89;nan
62800;BME280;48842;51.046;13.796;2024-03-25T03:42:22;98982.19;;;8.95;nan
62800;BME280;48842;51.046;13.796;2024-03-25T03:44:49;99009.25;;;8.89;nan
62800;BME280;48842;51.046;13.796;2024-03-25T03:47:14;98997.03;;;8.91;nan
62800;BME280;48842;51.046;13.796;2024-03-25T03:49:39;98996.16;;;8.93;nan
62800;BME280;48842;51.046;13.796;2024-03-25T03:52:06;99002.22;;;8.95;nan
62800;BME280;48842;51.046;13.796;2024-03-25T03:54:31;99020.47;;;8.96;nan
62800;BME280;48842;51.046;13.796;2024-03-25T03:56:56;99003.09;;;8.95;nan
62800;BME280;48842;51.046;13.796;2024-03-25T03:59:21;99001.34;;;8.96;nan
62800;BME280;48842;51.046;13.796;2024-03-25T04:01:47;99005.72;;;8.94;nan
62800;BME280;48842;51.046;13.796;2024-03-25T04:04:12;99000.47;;;8.95;nan
62800;BME280;48842;51.046;13.796;2024-03-25T04:06:37;99011.78;;;8.96;nan
62800;BME280;48842;51.046;13.796;2024-03-25T04:09:05;99031.84;;;8.90;nan
62800;BME280;48842;51.046;13.796;2024-03-25T04:11:31;99010.06;;;8.93;nan
62800;BME280;48842;51.046;13.796;2024-03-25T04:13:56;99014.41;;;8.94;nan
62800;BME280;48842;51.046;13.796;2024-03-25T04:16:21;99021.34;;;8.97;nan
62800;BME280;48842;51.046;13.796;2024-03-25T04:18:48;99020.44;;;8.98;nan
62800;BME280;48842;51.046;13.796;2024-03-25T04:21:13;99019.56;;;8.99;nan
62800;BME280;48842;51.046;13.796;2024-03-25T04:23:39;99020.44;;;8.98;nan
62800;BME280;48842;51.046;13.796;2024-03-25T04:26:06;99028.25;;;9.01;nan
62800;BME280;48842;51.046;13.796;2024-03-25T04:28:34;99034.34;;;9.03;nan
62800;BME280;48842;51.046;13.796;2024-03-25T04:30:59;99040.41;;;9.03;nan
62800;BME280;48842;51.046;13.796;2024-03-25T04:33:24;99046.53;;;9.04;nan
62800;BME280;48842;51.046;13.796;2024-03-25T04:35:50;99050.91;;;8.99;nan
62800;BME280;48842;51.046;13.796;2024-03-25T04:38:16;99058.72;;;9.02;nan
62800;BME280;48842;51.046;13.796;2024-03-25T04:40:41;99050.03;;;9.01;nan
62800;BME280;48842;51.046;13.796;2024-03-25T04:43:07;99057.81;;;9.06;nan
62800;BME280;48842;51.046;13.796;2024-03-25T04:45:32;99060.41;;;9.06;nan
62800;BME280;48842;51.046;13.796;2024-03-25T04:47:57;99070.03;;;9.02;nan
62800;BME280;48842;51.046;13.796;2024-03-25T04:50:23;99079.56;;;9.06;nan
62800;BME280;48842;51.046;13.796;2024-03-25T04:52:48;99088.25;;;9.08;nan
62800;BME280;48842;51.046;13.796;2024-03-25T04:55:13;99080.41;;;9.10;nan
62800;BME280;48842;51.046;13.796;2024-03-25T04:57:39;99085.63;;;9.10;nan
62800;BME280;48842;51.046;13.796;2024-03-25T05:00:05;99083.88;;;9.11;nan
62800;BME280;48842;51.046;13.796;2024-03-25T05:02:30;99076.06;;;9.07;nan
62800;BME280;48842;51.046;13.796;2024-03-25T05:04:55;99087.38;;;9.08;nan
62800;BME280;48842;51.046;13.796;2024-03-25T05:07:22;99101.25;;;9.13;nan
62800;BME280;48842;51.046;13.796;2024-03-25T05:09:47;99107.34;;;9.14;nan
62800;BME280;48842;51.046;13.796;2024-03-25T05:12:12;99103.88;;;9.13;nan
62800;BME280;48842;51.046;13.796;2024-03-25T05:14:37;99109.09;;;9.15;nan
62800;BME280;48842;51.046;13.796;2024-03-25T05:17:03;99106.50;;;9.13;nan
62800;BME280;48842;51.046;13.796;2024-03-25T05:19:31;99105.63;;;9.09;nan
62800;BME280;48842;51.046;13.796;2024-03-25T05:21:56;99107.41;;;9.09;nan
62800;BME280;48842;51.046;13.796;2024-03-25T05:24:21;99112.59;;;9.12;nan
62800;BME280;48842;51.046;13.796;2024-03-25T05:26:46;99112.59;;;9.11;nan
62800;BME280;48842;51.046;13.796;2024-03-25T05:29:12;99117.84;;;9.07;nan
62800;BME280;48842;51.046;13.796;2024-03-25T05:31:38;99125.69;;;9.09;nan
62800;BME280;48842;51.046;13.796;2024-03-25T05:34:04;99126.63;;;9.02;nan
62800;BME280;48842;51.046;13.796;2024-03-25T05:36:33;99138.81;;;9.01;nan
62800;BME280;48842;51.046;13.796;2024-03-25T05:38:58;99133.59;;;9.03;nan
62800;BME280;48842;51.046;13.796;2024-03-25T05:41:25;99136.16;;;9.06;nan
62800;BME280;48842;51.046;13.796;2024-03-25T05:43:50;99132.69;;;9.07;nan
62800;BME280;48842;51.046;13.796;2024-03-25T05:46:15;99146.63;;;9.03;nan
62800;BME280;48842;51.046;13.796;2024-03-25T05:48:42;99150.09;;;9.05;nan
62800;BME280;48842;51.046;13.796;2024-03-25T05:51:09;99150.03;;;9.11;nan
62800;BME280;48842;51.046;13.796;2024-03-25T05:53:35;99146.47;;;9.18;nan
62800;BME280;48842;51.046;13.796;2024-03-25T05:56:05;99156.97;;;9.15;nan
62800;BME280;48842;51.046;13.796;2024-03-25T05:58:33;99157.88;;;9.13;nan
62800;BME280;48842;51.046;13.796;2024-03-25T06:00:59;99164.75;;;9.18;nan
62800;BME280;48842;51.046;13.796;2024-03-25T06:03:26;99162.03;;;9.31;nan
62800;BME280;48842;51.046;13.796;2024-03-25T06:05:51;99164.63;;;9.34;nan
62800;BME280;48842;51.046;13.796;2024-03-25T06:08:16;99168.09;;;9.34;nan
62800;BME280;48842;51.046;13.796;2024-03-25T06:10:51;99169.00;;;9.32;nan
62800;BME280;48842;51.046;13.796;2024-03-25T06:13:16;99161.22;;;9.25;nan
62800;BME280;48842;51.046;13.796;2024-03-25T06:15:42;99175.19;;;9.23;nan
62800;BME280;48842;51.046;13.796;2024-03-25T06:18:07;99171.69;;;9.22;nan
62800;BME280;48842;51.046;13.796;2024-03-25T06:20:32;99178.59;;;9.28;nan
62800;BME280;48842;51.046;13.796;2024-03-25T06:22:57;99181.97;;;9.41;nan
62800;BME280;48842;51.046;13.796;2024-03-25T06:25:23;99175.81;;;9.47;nan
62800;BME280;48842;51.046;13.796;2024-03-25T06:27:51;99188.06;;;9.40;nan
62800;BME280;48842;51.046;13.796;2024-03-25T06:30:18;99190.66;;;9.41;nan
62800;BME280;48842;51.046;13.796;2024-03-25T06:33:02;99197.56;;;9.49;nan
62800;BME280;48842;51.046;13.796;2024-03-25T06:35:46;99198.59;;;9.34;nan
62800;BME280;48842;51.046;13.796;2024-03-25T06:38:11;99204.69;;;9.33;nan
62800;BME280;48842;51.046;13.796;2024-03-25T06:40:37;99208.22;;;9.30;nan
62800;BME280;48842;51.046;13.796;2024-03-25T06:43:03;99219.56;;;9.28;nan
62800;BME280;48842;51.046;13.796;2024-03-25T06:45:28;99211.69;;;9.31;nan
62800;BME280;48842;51.046;13.796;2024-03-25T06:47:54;99200.41;;;9.24;nan
62800;BME280;48842;51.046;13.796;2024-03-25T06:50:19;99221.28;;;9.32;nan
62800;BME280;48842;51.046;13.796;2024-03-25T06:52:44;99215.16;;;9.31;nan
62800;BME280;48842;51.046;13.796;2024-03-25T06:55:10;99215.19;;;9.28;nan
62800;BME280;48842;51.046;13.796;2024-03-25T06:57:35;99222.13;;;9.32;nan
62800;BME280;48842;51.046;13.796;2024-03-25T07:00:00;99223.81;;;9.39;nan
62800;BME280;48842;51.046;13.796;2024-03-25T07:02:25;99227.25;;;9.43;nan
62800;BME280;48842;51.046;13.796;2024-03-25T07:04:52;99232.44;;;9.49;nan
62800;BME280;48842;51.046;13.796;2024-03-25T07:07:17;99222.81;;;9.51;nan
62800;BME280;48842;51.046;13.796;2024-03-25T07:09:43;99231.50;;;9.53;nan
62800;BME280;48842;51.046;13.796;2024-03-25T07:12:08;99235.88;;;9.51;nan
62800;BME280;48842;51.046;13.796;2024-03-25T07:14:33;99237.56;;;9.58;nan
62800;BME280;48842;51.046;13.796;2024-03-25T07:16:59;99250.53;;;9.68;nan
62800;BME280;48842;51.046;13.796;2024-03-25T07:19:24;99255.72;;;9.74;nan
62800;BME280;48842;51.046;13.796;2024-03-25T07:21:49;99247.84;;;9.77;nan
62800;BME280;48842;51.046;13.796;2024-03-25T07:24:15;99257.34;;;9.84;nan
62800;BME280;48842;51.046;13.796;2024-03-25T07:26:40;99255.59;;;9.83;nan
62800;BME280;48842;51.046;13.796;2024-03-25T07:29:05;99259.06;;;9.85;nan
62800;BME280;48842;51.046;13.796;2024-03-25T07:31:31;99271.31;;;9.82;nan
62800;BME280;48842;51.046;13.796;2024-03-25T07:33:56;99266.94;;;9.82;nan
62800;BME280;48842;51.046;13.796;2024-03-25T07:36:21;99264.22;;;9.91;nan
62800;BME280;48842;51.046;13.796;2024-03-25T07:38:46;99277.31;;;9.93;nan
62800;BME280;48842;51.046;13.796;2024-03-25T07:41:12;99277.28;;;9.96;nan
62800;BME280;48842;51.046;13.796;2024-03-25T07:43:37;99272.06;;;9.94;nan
62800;BME280;48842;51.046;13.796;2024-03-25T07:46:03;99281.69;;;9.89;nan
62800;BME280;48842;51.046;13.796;2024-03-25T07:48:29;99290.34;;;9.96;nan
62800;BME280;48842;51.046;13.796;2024-03-25T07:50:54;99288.56;;;10.00;nan
62800;BME280;48842;51.046;13.796;2024-03-25T07:53:20;99285.06;;;10.01;nan
62800;BME280;48842;51.046;13.796;2024-03-25T07:55:45;99287.72;;;9.98;nan
62800;BME280;48842;51.046;13.796;2024-03-25T07:58:10;99300.75;;;10.01;nan
62800;BME280;48842;51.046;13.796;2024-03-25T08:00:35;99293.72;;;10.04;nan
62800;BME280;48842;51.046;13.796;2024-03-25T08:03:01;99300.69;;;10.07;nan
62800;BME280;48842;51.046;13.796;2024-03-25T08:05:26;99302.38;;;10.11;nan
62800;BME280;48842;51.046;13.796;2024-03-25T08:07:52;99303.28;;;10.08;nan
62800;BME280;48842;51.046;13.796;2024-03-25T08:10:17;99306.72;;;10.13;nan
62800;BME280;48842;51.046;13.796;2024-03-25T08:12:42;99306.59;;;10.24;nan
62800;BME280;48842;51.046;13.796;2024-03-25T08:15:08;99310.00;;;10.34;nan
62800;BME280;48842;51.046;13.796;2024-03-25T08:17:33;99315.97;;;10.44;nan
62800;BME280;48842;51.046;13.796;2024-03-25T08:19:58;99329.09;;;10.42;nan
62800;BME280;48842;51.046;13.796;2024-03-25T08:22:24;99312.50;;;10.43;nan
62800;BME280;48842;51.046;13.796;2024-03-25T08:24:49;99318.63;;;10.45;nan
62800;BME280;48842;51.046;13.796;2024-03-25T08:27:14;99315.97;;;10.47;nan
62800;BME280;48842;51.046;13.796;2024-03-25T08:29:40;99315.91;;;10.52;nan
62800;BME280;48842;51.046;13.796;2024-03-25T08:32:06;99314.88;;;10.63;nan
62800;BME280;48842;51.046;13.796;2024-03-25T08:34:31;99321.78;;;10.71;nan
62800;BME280;48842;51.046;13.796;2024-03-25T08:36:56;99317.47;;;10.67;nan
62800;BME280;48842;51.046;13.796;2024-03-25T08:39:22;99320.75;;;10.81;nan
62800;BME280;48842;51.046;13.796;2024-03-25T08:41:47;99321.56;;;10.85;nan
62800;BME280;48842;51.046;13.796;2024-03-25T08:44:12;99330.34;;;10.80;nan
62800;BME280;48842;51.046;13.796;2024-03-25T08:46:38;99333.97;;;10.70;nan
62800;BME280;48842;51.046;13.796;2024-03-25T08:49:04;99338.41;;;10.67;nan
62800;BME280;48842;51.046;13.796;2024-03-25T08:51:29;99340.16;;;10.68;nan
62800;BME280;48842;51.046;13.796;2024-03-25T08:53:54;99344.44;;;10.73;nan
62800;BME280;48842;51.046;13.796;2024-03-25T08:56:19;99335.66;;;10.76;nan
62800;BME280;48842;51.046;13.796;2024-03-25T08:58:45;99345.16;;;10.83;nan
62800;BME280;48842;51.046;13.796;2024-03-25T09:01:10;99340.66;;;10.94;nan
62800;BME280;48842;51.046;13.796;2024-03-25T09:03:39;99343.97;;;11.07;nan
62800;BME280;48842;51.046;13.796;2024-03-25T09:06:04;99346.44;;;11.18;nan
62800;BME280;48842;51.046;13.796;2024-03-25T09:08:29;99339.47;;;11.17;nan
62800;BME280;48842;51.046;13.796;2024-03-25T09:11:01;99350.78;;;11.19;nan
62800;BME280;48842;51.046;13.796;2024-03-25T09:13:32;99364.03;;;11.10;nan
62800;BME280;48842;51.046;13.796;2024-03-25T09:15:57;99370.28;;;10.98;nan
62800;BME280;48842;51.046;13.796;2024-03-25T09:18:22;99368.69;;;10.88;nan
62800;BME280;48842;51.046;13.796;2024-03-25T09:20:48;99366.13;;;10.83;nan
62800;BME280;48842;51.046;13.796;2024-03-25T09:23:13;99377.53;;;10.79;nan
62800;BME280;48842;51.046;13.796;2024-03-25T09:25:38;99371.44;;;10.77;nan
62800;BME280;48842;51.046;13.796;2024-03-25T09:28:04;99380.22;;;10.73;nan
62800;BME280;48842;51.046;13.796;2024-03-25T09:30:30;99382.81;;;10.76;nan
62800;BME280;48842;51.046;13.796;2024-03-25T09:32:55;99380.13;;;10.82;nan
62800;BME280;48842;51.046;13.796;2024-03-25T09:35:22;99387.00;;;10.91;nan
62800;BME280;48842;51.046;13.796;2024-03-25T09:37:48;99380.69;;;11.06;nan
62800;BME280;48842;51.046;13.796;2024-03-25T09:40:13;99412.81;;;11.20;nan
62800;BME280;48842;51.046;13.796;2024-03-25T09:42:49;99389.09;;;11.28;nan
62800;BME280;48842;51.046;13.796;2024-03-25T09:45:17;99386.44;;;11.31;nan
62800;BME280;48842;51.046;13.796;2024-03-25T09:47:46;99395.94;;;11.40;nan
62800;BME280;48842;51.046;13.796;2024-03-25T09:50:13;99393.19;;;11.46;nan
62800;BME280;48842;51.046;13.796;2024-03-25T09:52:39;99393.09;;;11.52;nan
62800;BME280;48842;51.046;13.796;2024-03-25T09:55:05;99396.53;;;11.57;nan
62800;BME280;48842;51.046;13.796;2024-03-25T09:57:30;99393.69;;;11.69;nan
62800;BME280;48842;51.046;13.796;2024-03-25T09:59:56;99404.19;;;11.69;nan
62800;BME280;48842;51.046;13.796;2024-03-25T10:02:22;99402.50;;;11.67;nan
62800;BME280;48842;51.046;13.796;2024-03-25T10:04:51;99395.28;;;11.81;nan
62800;BME280;48842;51.046;13.796;2024-03-25T10:07:23;99398.56;;;11.93;nan
62800;BME280;48842;51.046;13.796;2024-03-25T10:09:52;99402.00;;;11.99;nan
62800;BME280;48842;51.046;13.796;2024-03-25T10:12:17;99406.38;;;12.00;nan
62800;BME280;48842;51.046;13.796;2024-03-25T10:14:43;99405.47;;;12.01;nan
62800;BME280;48842;51.046;13.796;2024-03-25T10:17:08;99416.09;;;11.94;nan
62800;BME280;48842;51.046;13.796;2024-03-25T10:19:34;99406.47;;;11.91;nan
62800;BME280;48842;51.046;13.796;2024-03-25T10:22:06;99414.31;;;11.94;nan
62800;BME280;48842;51.046;13.796;2024-03-25T10:24:45;99408.28;;;11.89;nan
62800;BME280;48842;51.046;13.796;2024-03-25T10:27:21;99405.72;;;11.84;nan
62800;BME280;48842;51.046;13.796;2024-03-25T10:29:54;99407.56;;;11.78;nan
62800;BME280;48842;51.046;13.796;2024-03-25T10:32:22;99404.19;;;11.69;nan
62800;BME280;48842;51.046;13.796;2024-03-25T10:34:50;99411.25;;;11.67;nan
62800;BME280;48842;51.046;13.796;2024-03-25T10:37:15;99410.47;;;11.62;nan
62800;BME280;48842;51.046;13.796;2024-03-25T10:39:50;99408.84;;;11.52;nan
62800;BME280;48842;51.046;13.796;2024-03-25T10:42:20;99412.31;;;11.54;nan
62800;BME280;48842;51.046;13.796;2024-03-25T10:44:47;99404.34;;;11.60;nan
62800;BME280;48842;51.046;13.796;2024-03-25T10:47:21;99406.81;;;11.73;nan
62800;BME280;48842;51.046;13.796;2024-03-25T10:49:56;99410.94;;;11.86;nan
62800;BME280;48842;51.046;13.796;2024-03-25T10:52:24;99402.88;;;11.98;nan
62800;BME280;48842;51.046;13.796;2024-03-25T10:54:49;99404.34;;;12.15;nan
62800;BME280;48842;51.046;13.796;2024-03-25T10:57:16;99405.00;;;12.28;nan
62800;BME280;48842;51.046;13.796;2024-03-25T10:59:45;99404.91;;;12.32;nan
62800;BME280;48842;51.046;13.796;2024-03-25T11:02:11;99402.22;;;12.37;nan
62800;BME280;48842;51.046;13.796;2024-03-25T11:04:37;99398.56;;;12.46;nan
62800;BME280;48842;51.046;13.796;2024-03-25T11:07:10;99398.44;;;12.52;nan
62800;BME280;48842;51.046;13.796;2024-03-25T11:09:39;99401.81;;;12.57;nan
62800;BME280;48842;51.046;13.796;2024-03-25T11:12:04;99406.13;;;12.61;nan
62800;BME280;48842;51.046;13.796;2024-03-25T11:14:30;99397.41;;;12.59;nan
62800;BME280;48842;51.046;13.796;2024-03-25T11:16:59;99406.09;;;12.63;nan
62800;BME280;48842;51.046;13.796;2024-03-25T11:19:26;99396.41;;;12.66;nan
62800;BME280;48842;51.046;13.796;2024-03-25T11:21:51;99406.06;;;12.64;nan
62800;BME280;48842;51.046;13.796;2024-03-25T11:24:27;99395.78;;;12.53;nan
62800;BME280;48842;51.046;13.796;2024-03-25T11:26:53;99400.13;;;12.54;nan
62800;BME280;48842;51.046;13.796;2024-03-25T11:29:18;99400.81;;;12.64;nan
62800;BME280;48842;51.046;13.796;2024-03-25T11:31:44;99391.84;;;12.74;nan
62800;BME280;48842;51.046;13.796;2024-03-25T11:34:10;99398.06;;;12.70;nan
62800;BME280;48842;51.046;13.796;2024-03-25T11:36:35;99395.75;;;12.55;nan
62800;BME280;48842;51.046;13.796;2024-03-25T11:39:01;99393.25;;;12.49;nan
62800;BME280;48842;51.046;13.796;2024-03-25T11:41:34;99403.69;;;12.52;nan
62800;BME280;48842;51.046;13.796;2024-03-25T11:44:02;99401.81;;;12.57;nan
62800;BME280;48842;51.046;13.796;2024-03-25T11:46:28;99399.19;;;12.57;nan
62800;BME280;48842;51.046;13.796;2024-03-25T11:48:54;99396.56;;;12.57;nan
62800;BME280;48842;51.046;13.796;2024-03-25T11:51:19;99392.13;;;12.61;nan
62800;BME280;48842;51.046;13.796;2024-03-25T11:53:45;99399.06;;;12.65;nan
62800;BME280;48842;51.046;13.796;2024-03-25T11:56:13;99393.84;;;12.63;nan
62800;BME280;48842;51.046;13.796;2024-03-25T11:58:39;99397.38;;;12.61;nan
62800;BME280;48842;51.046;13.796;2024-03-25T12:01:04;99399.25;;;12.54;nan
62800;BME280;48842;51.046;13.796;2024-03-25T12:03:30;99398.53;;;12.47;nan
62800;BME280;48842;51.046;13.796;2024-03-25T12:05:56;99404.03;;;12.33;nan
62800;BME280;48842;51.046;13.796;2024-03-25T12:08:21;99406.91;;;12.19;nan
62800;BME280;48842;51.046;13.796;2024-03-25T12:10:51;99398.28;;;12.11;nan
62800;BME280;48842;51.046;13.796;2024-03-25T12:13:35;99397.38;;;12.14;nan
62800;BME280;48842;51.046;13.796;2024-03-25T12:16:00;99402.47;;;12.23;nan
62800;BME280;48842;51.046;13.796;2024-03-25T12:18:27;99407.50;;;12.35;nan
62800;BME280;48842;51.046;13.796;2024-03-25T12:20:53;99398.44;;;12.52;nan
62800;BME280;48842;51.046;13.796;2024-03-25T12:23:18;99396.13;;;12.79;nan
62800;BME280;48842;51.046;13.796;2024-03-25T12:25:48;99400.00;;;13.04;nan
62800;BME280;48842;51.046;13.796;2024-03-25T12:28:14;99405.16;;;13.09;nan
62800;BME280;48842;51.046;13.796;2024-03-25T12:30:51;99397.22;;;13.10;nan
62800;BME280;48842;51.046;13.796;2024-03-25T12:33:17;99393.03;;;13.02;nan
62800;BME280;48842;51.046;13.796;2024-03-25T12:35:45;99388.69;;;12.99;nan
62800;BME280;48842;51.046;13.796;2024-03-25T12:38:10;99392.22;;;13.00;nan
62800;BME280;48842;51.046;13.796;2024-03-25T12:40:35;99399.41;;;12.90;nan
62800;BME280;48842;51.046;13.796;2024-03-25T12:43:00;99400.53;;;12.78;nan
62800;BME280;48842;51.046;13.796;2024-03-25T12:45:26;99393.84;;;12.63;nan
62800;BME280;48842;51.046;13.796;2024-03-25T12:47:51;99394.03;;;12.52;nan
62800;BME280;48842;51.046;13.796;2024-03-25T12:50:17;99410.00;;;12.42;nan
62800;BME280;48842;51.046;13.796;2024-03-25T12:52:44;99400.56;;;12.31;nan
62800;BME280;48842;51.046;13.796;2024-03-25T12:55:09;99406.84;;;12.22;nan
62800;BME280;48842;51.046;13.796;2024-03-25T12:57:35;99408.63;;;12.20;nan
62800;BME280;48842;51.046;13.796;2024-03-25T13:00:02;99408.63;;;12.20;nan
62800;BME280;48842;51.046;13.796;2024-03-25T13:02:29;99409.34;;;12.30;nan
62800;BME280;48842;51.046;13.796;2024-03-25T13:04:55;99415.31;;;12.38;nan
62800;BME280;48842;51.046;13.796;2024-03-25T13:07:21;99407.38;;;12.42;nan
62800;BME280;48842;51.046;13.796;2024-03-25T13:09:46;99414.31;;;12.46;nan
62800;BME280;48842;51.046;13.796;2024-03-25T13:12:12;99408.81;;;12.58;nan